Time;durP1;ratioP1;P1;durP2;ratioP2;P2;SDS_P1;SDS_P2;PMS_P1;PMS_P2;Temp;Humidity;BMP_temperature;BMP_pressure;BME280_temperature;BME280_humidity;BME280_pressure;Samples;Min_cycle;Max_cycle;Signal;HPM_P1;HPM_P2
2022/11/12 00:00:34;;;;;;;;;;;2.70;99.90;;;;;;5066307;28;20190;-75
2022/11/12 00:03:00;;;;;;;;;;;2.70;99.90;;;;;;5067162;28;19908;-75
2022/11/12 00:05:25;;;;;;;;;;;2.70;99.90;;;;;;5066661;28;19908;-76
2022/11/12 00:07:51;;;;;;;;;;;2.60;99.90;;;;;;5065929;28;20002;-75
2022/11/12 00:10:16;;;;;;;;;;;6.40;99.90;;;;;;5046518;28;20163;-76
2022/11/12 00:12:42;;;;;;;;;;;2.80;99.90;;;;;;5062259;28;20035;-74
2022/11/12 00:15:08;;;;;;;;;;;3.60;99.90;;;;;;5045335;28;19900;-74
2022/11/12 00:17:33;;;;;;;;;;;3.20;99.90;;;;;;5044593;28;20181;-74
2022/11/12 00:19:59;;;;;;;;;;;3.30;99.90;;;;;;5063086;28;19923;-74
2022/11/12 00:22:24;;;;;;;;;;;3.40;99.90;;;;;;5063180;28;19913;-74
2022/11/12 00:24:50;;;;;;;;;;;3.40;99.90;;;;;;5048427;28;20208;-74
2022/11/12 00:27:15;;;;;;;;;;;3.40;99.90;;;;;;5066426;28;20307;-74
2022/11/12 00:29:41;;;;;;;;;;;3.40;99.90;;;;;;5048682;28;19901;-74
2022/11/12 00:32:07;;;;;;;;;;;3.60;99.90;;;;;;5067171;28;19901;-75
2022/11/12 00:34:33;;;;;;;;;;;3.40;99.90;;;;;;5068204;28;20102;-75
2022/11/12 00:36:59;;;;;;;;;;;3.40;99.90;;;;;;5049992;28;20216;-74
2022/11/12 00:39:24;;;;;;;;;;;3.30;99.90;;;;;;5049926;28;19908;-75
2022/11/12 00:41:50;;;;;;;;;;;4.30;99.90;;;;;;5066873;28;19901;-75
2022/11/12 00:44:15;;;;;;;;;;;3.30;99.90;;;;;;5067628;28;19940;-74
2022/11/12 00:46:41;;;;;;;;;;;3.30;99.90;;;;;;5066313;28;19923;-74
2022/11/12 00:49:07;;;;;;;;;;;3.20;99.90;;;;;;5065555;28;20093;-74
2022/11/12 00:51:32;;;;;;;;;;;3.20;99.90;;;;;;5067085;28;19909;-74
2022/11/12 00:53:58;;;;;;;;;;;3.20;99.90;;;;;;5047224;28;19901;-75
2022/11/12 00:56:23;;;;;;;;;;;1.70;99.90;;;;;;5065438;28;19916;-75
2022/11/12 00:58:49;;;;;;;;;;;3.00;99.90;;;;;;5048391;28;19916;-74
2022/11/12 01:01:15;;;;;;;;;;;3.00;99.90;;;;;;5063825;28;19938;-74
2022/11/12 01:03:41;;;;;;;;;;;2.90;99.90;;;;;;5064820;28;19962;-74
2022/11/12 01:06:17;;;;;;;;;;;2.90;99.90;;;;;;5041931;28;19900;-74
2022/11/12 01:08:42;;;;;;;;;;;2.80;99.90;;;;;;5060778;28;19905;-74
2022/11/12 01:11:10;;;;;;;;;;;4.00;99.90;;;;;;5037255;28;19901;-75
2022/11/12 01:13:36;;;;;;;;;;;2.80;99.90;;;;;;5044479;28;19901;-73
2022/11/12 01:16:09;;;;;;;;;;;3.00;99.90;;;;;;5036062;28;19905;-74
2022/11/12 01:18:35;;;;;;;;;;;2.70;99.90;;;;;;5042990;28;20097;-75
2022/11/12 01:21:01;;;;;;;;;;;2.70;99.90;;;;;;5061910;28;20211;-74
2022/11/12 01:23:27;;;;;;;;;;;3.60;99.90;;;;;;5061850;28;19975;-74
2022/11/12 01:25:52;;;;;;;;;;;2.70;99.90;;;;;;5061937;28;19901;-75
2022/11/12 01:28:18;;;;;;;;;;;3.60;99.90;;;;;;5062759;28;19901;-74
2022/11/12 01:30:43;;;;;;;;;;;2.70;99.90;;;;;;5062035;28;19935;-74
2022/11/12 01:33:09;;;;;;;;;;;2.70;99.90;;;;;;5063767;28;19924;-74
2022/11/12 01:35:34;;;;;;;;;;;2.70;99.90;;;;;;5065567;28;19914;-75
2022/11/12 01:38:00;;;;;;;;;;;2.80;99.90;;;;;;5048198;28;19901;-74
2022/11/12 01:40:25;;;;;;;;;;;2.80;99.90;;;;;;5065095;28;19904;-74
2022/11/12 01:42:52;;;;;;;;;;;3.20;99.90;;;;;;5064664;28;20205;-74
2022/11/12 01:45:18;;;;;;;;;;;3.70;99.90;;;;;;5065233;28;19931;-74
2022/11/12 01:47:45;;;;;;;;;;;2.80;99.90;;;;;;5064957;28;19979;-74
2022/11/12 01:50:10;;;;;;;;;;;2.90;99.90;;;;;;5046308;28;19908;-74
2022/11/12 01:52:38;;;;;;;;;;;3.00;99.90;;;;;;5065241;28;19905;-74
2022/11/12 01:55:05;;;;;;;;;;;3.10;99.90;;;;;;5065498;28;19982;-74
2022/11/12 01:57:35;;;;;;;;;;;3.10;99.90;;;;;;5047265;28;19901;-75
2022/11/12 02:00:03;;;;;;;;;;;3.20;99.90;;;;;;5065321;28;20243;-75
2022/11/12 02:02:29;;;;;;;;;;;3.00;99.90;;;;;;5056741;28;19998;-74
2022/11/12 02:04:55;;;;;;;;;;;3.10;99.90;;;;;;5028155;28;20251;-75
2022/11/12 02:07:21;;;;;;;;;;;3.80;99.90;;;;;;5027101;28;19901;-74
2022/11/12 02:09:47;;;;;;;;;;;3.10;99.90;;;;;;5043843;28;20324;-75
2022/11/12 02:13:56;;;;;;;;;;;3.10;99.90;;;;;;5036605;28;19940;-76
2022/11/12 02:14:58;;;;;;;;;;;3.20;99.90;;;;;;5035510;28;19909;-74
2022/11/12 02:17:24;;;;;;;;;;;4.00;99.90;;;;;;5034998;28;20068;-74
2022/11/12 02:19:50;;;;;;;;;;;3.70;99.90;;;;;;5018282;28;20266;-75
2022/11/12 02:22:16;;;;;;;;;;;3.40;99.90;;;;;;5025265;28;19924;-75
2022/11/12 02:24:41;;;;;;;;;;;3.40;99.90;;;;;;5026203;28;19906;-75
2022/11/12 02:27:07;;;;;;;;;;;4.00;99.90;;;;;;5025897;28;19908;-74
2022/11/12 02:29:33;;;;;;;;;;;3.50;99.90;;;;;;5025959;28;20101;-73
2022/11/12 02:31:58;;;;;;;;;;;3.80;99.90;;;;;;5043378;28;20182;-76
2022/11/12 02:34:24;;;;;;;;;;;3.60;99.90;;;;;;5025469;28;19913;-75
2022/11/12 02:36:49;;;;;;;;;;;3.40;99.90;;;;;;5025826;28;19980;-74
2022/11/12 02:39:15;;;;;;;;;;;4.40;99.90;;;;;;5026118;28;20041;-75
2022/11/12 02:41:40;;;;;;;;;;;3.40;99.90;;;;;;5043312;28;19901;-74
2022/11/12 02:44:06;;;;;;;;;;;3.50;99.90;;;;;;5025216;28;19913;-74
2022/11/12 02:46:31;;;;;;;;;;;3.40;99.90;;;;;;5042002;28;19901;-75
2022/11/12 02:48:57;;;;;;;;;;;3.50;99.90;;;;;;5040604;28;19901;-75
2022/11/12 02:51:22;;;;;;;;;;;3.90;99.90;;;;;;5040158;28;20007;-74
2022/11/12 02:53:48;;;;;;;;;;;3.40;99.90;;;;;;5041849;28;20204;-75
2022/11/12 02:56:13;;;;;;;;;;;3.80;99.90;;;;;;5043984;28;19939;-75
2022/11/12 02:58:39;;;;;;;;;;;3.30;99.90;;;;;;5048180;28;19901;-75
2022/11/12 03:01:04;;;;;;;;;;;3.20;99.90;;;;;;5045621;28;19976;-74
2022/11/12 03:03:30;;;;;;;;;;;4.10;99.90;;;;;;5045308;28;20269;-75
2022/11/12 03:05:56;;;;;;;;;;;3.20;99.90;;;;;;5046225;28;19908;-75
2022/11/12 03:08:23;;;;;;;;;;;3.80;99.90;;;;;;5047434;28;19901;-75
2022/11/12 03:10:48;;;;;;;;;;;4.10;99.90;;;;;;5047313;28;20162;-75
2022/11/12 03:13:14;;;;;;;;;;;4.30;99.90;;;;;;5025602;28;19935;-77
2022/11/12 03:15:39;;;;;;;;;;;4.40;99.90;;;;;;5043395;28;19901;-75
2022/11/12 03:18:05;;;;;;;;;;;3.10;99.90;;;;;;5047586;28;20097;-75
2022/11/12 03:20:30;;;;;;;;;;;3.10;99.90;;;;;;5048551;28;19901;-75
2022/11/12 03:22:57;;;;;;;;;;;3.50;99.90;;;;;;5045622;28;19955;-74
2022/11/12 03:25:23;;;;;;;;;;;3.20;99.90;;;;;;5044838;28;19933;-74
2022/11/12 03:27:55;;;;;;;;;;;3.20;99.90;;;;;;5044982;28;19908;-74
2022/11/12 03:30:21;;;;;;;;;;;3.90;99.90;;;;;;5044200;28;19909;-74
2022/11/12 03:32:47;;;;;;;;;;;3.40;99.90;;;;;;5044522;28;19900;-75
2022/11/12 03:35:12;;;;;;;;;;;3.40;99.90;;;;;;5047086;28;19967;-76
2022/11/12 03:37:38;;;;;;;;;;;5.00;99.90;;;;;;5049343;28;19909;-74
2022/11/12 03:40:04;;;;;;;;;;;3.70;99.90;;;;;;5048817;28;19939;-75
2022/11/12 03:42:29;;;;;;;;;;;3.40;99.90;;;;;;5031912;28;19909;-75
2022/11/12 03:44:55;;;;;;;;;;;3.30;99.90;;;;;;5031685;28;19980;-74
2022/11/12 03:47:20;;;;;;;;;;;3.30;99.90;;;;;;5027801;28;19909;-73
2022/11/12 03:49:46;;;;;;;;;;;4.20;99.90;;;;;;5044592;28;19909;-75
2022/11/12 03:52:11;;;;;;;;;;;3.30;99.90;;;;;;5048074;28;19916;-75
2022/11/12 03:54:37;;;;;;;;;;;4.30;99.90;;;;;;5027417;28;19905;-74
2022/11/12 03:57:02;;;;;;;;;;;4.30;99.90;;;;;;5041153;28;19912;-74
2022/11/12 03:59:28;;;;;;;;;;;3.40;99.90;;;;;;5025270;28;19905;-74
2022/11/12 04:01:54;;;;;;;;;;;3.30;99.90;;;;;;5029596;28;19999;-74
2022/11/12 04:04:20;;;;;;;;;;;3.30;99.90;;;;;;5030851;28;19940;-74
2022/11/12 04:09:29;;;;;;;;;;;3.20;99.90;;;;;;5046269;28;20220;-73
2022/11/12 04:13:26;;;;;;;;;;;3.30;99.90;;;;;;5045825;28;19960;-74
2022/11/12 04:14:40;;;;;;;;;;;3.50;99.90;;;;;;5045898;28;19908;-74
2022/11/12 04:22:34;;;;;;;;;;;3.10;99.90;;;;;;5040532;28;19940;-74
2022/11/12 04:27:45;;;;;;;;;;;3.10;99.90;;;;;;5038394;28;19951;-74
2022/11/12 04:30:17;;;;;;;;;;;3.30;99.90;;;;;;5021818;28;19928;-74
2022/11/12 04:32:53;;;;;;;;;;;3.00;99.90;;;;;;5038867;28;19913;-75
2022/11/12 04:35:19;;;;;;;;;;;3.00;99.90;;;;;;5017509;28;19917;-75
2022/11/12 04:37:46;;;;;;;;;;;3.40;99.90;;;;;;5043799;28;19946;-74
2022/11/12 04:45:42;;;;;;;;;;;3.00;99.90;;;;;;5044033;28;19908;-74
2022/11/12 04:48:08;;;;;;;;;;;2.70;99.90;;;;;;5042923;28;20271;-74
2022/11/12 04:50:33;;;;;;;;;;;3.50;99.90;;;;;;5043335;28;19967;-74
2022/11/12 04:52:59;;;;;;;;;;;2.60;99.90;;;;;;5043491;28;20078;-74
2022/11/12 04:55:25;;;;;;;;;;;2.60;99.90;;;;;;5041742;28;19908;-74
2022/11/12 04:57:50;;;;;;;;;;;2.60;99.90;;;;;;5042509;28;20097;-74
2022/11/12 05:00:16;;;;;;;;;;;2.60;99.90;;;;;;5042298;28;20361;-74
2022/11/12 05:02:41;;;;;;;;;;;2.50;99.90;;;;;;5042497;28;19908;-73
2022/11/12 05:05:07;;;;;;;;;;;2.90;99.90;;;;;;5037852;28;19901;-74
2022/11/12 05:07:33;;;;;;;;;;;2.40;99.90;;;;;;5039027;28;19908;-75
2022/11/12 05:09:58;;;;;;;;;;;2.40;99.90;;;;;;5024192;28;19909;-75
2022/11/12 05:12:24;;;;;;;;;;;2.40;99.90;;;;;;5042220;28;19908;-75
2022/11/12 05:14:50;;;;;;;;;;;2.70;99.90;;;;;;5041931;28;19959;-74
2022/11/12 05:17:15;;;;;;;;;;;3.00;99.90;;;;;;5041971;28;20185;-75
2022/11/12 05:19:41;;;;;;;;;;;2.90;99.90;;;;;;5039346;28;19901;-75
2022/11/12 05:22:08;;;;;;;;;;;2.40;99.90;;;;;;5040157;28;19905;-74
2022/11/12 05:24:39;;;;;;;;;;;2.30;99.90;;;;;;5024842;28;20180;-74
2022/11/12 05:27:07;;;;;;;;;;;2.30;99.90;;;;;;5042653;28;19909;-74
2022/11/12 05:29:33;;;;;;;;;;;3.90;99.90;;;;;;5042371;28;19932;-75
2022/11/12 05:31:58;;;;;;;;;;;2.40;99.90;;;;;;5048722;28;19909;-74
2022/11/12 05:34:24;;;;;;;;;;;3.10;99.90;;;;;;5052027;28;19912;-74
2022/11/12 05:36:50;;;;;;;;;;;2.30;99.90;;;;;;5051691;28;19932;-74
2022/11/12 05:39:15;;;;;;;;;;;2.20;99.90;;;;;;5035308;28;19905;-75
2022/11/12 05:41:40;;;;;;;;;;;2.40;99.90;;;;;;5049193;28;19909;-74
2022/11/12 05:44:06;;;;;;;;;;;2.40;99.90;;;;;;5061294;28;20099;-74
2022/11/12 05:46:32;;;;;;;;;;;3.90;99.90;;;;;;5060199;28;19904;-74
2022/11/12 05:48:57;;;;;;;;;;;2.40;99.90;;;;;;5043519;28;20011;-74
2022/11/12 05:51:23;;;;;;;;;;;3.70;99.90;;;;;;5060916;28;19943;-74
2022/11/12 05:53:48;;;;;;;;;;;3.40;99.90;;;;;;5060861;28;20247;-74
2022/11/12 05:56:14;;;;;;;;;;;2.20;99.90;;;;;;5060818;28;19908;-74
2022/11/12 05:58:39;;;;;;;;;;;2.80;99.90;;;;;;5043161;28;19907;-74
2022/11/12 06:01:05;;;;;;;;;;;2.30;99.90;;;;;;5043087;28;19901;-74
2022/11/12 06:03:30;;;;;;;;;;;2.40;99.90;;;;;;5061401;28;19909;-74
2022/11/12 06:05:56;;;;;;;;;;;4.60;99.90;;;;;;5061135;28;20181;-74
2022/11/12 06:08:22;;;;;;;;;;;2.30;99.90;;;;;;5043174;28;19976;-74
2022/11/12 06:10:48;;;;;;;;;;;2.30;99.90;;;;;;5060846;28;20197;-74
2022/11/12 06:13:14;;;;;;;;;;;2.10;99.90;;;;;;5060916;28;20261;-74
2022/11/12 06:15:40;;;;;;;;;;;2.00;99.90;;;;;;5061228;28;19934;-74
2022/11/12 06:18:05;;;;;;;;;;;3.80;99.90;;;;;;5043144;28;19900;-74
2022/11/12 06:20:31;;;;;;;;;;;4.00;99.90;;;;;;5060910;28;19930;-74
2022/11/12 06:22:56;;;;;;;;;;;2.10;99.90;;;;;;5042744;28;19919;-74
2022/11/12 06:25:22;;;;;;;;;;;2.90;99.90;;;;;;5061315;28;19995;-74
2022/11/12 06:27:48;;;;;;;;;;;2.30;99.90;;;;;;5060256;28;19934;-74
2022/11/12 06:30:13;;;;;;;;;;;2.70;99.90;;;;;;5060363;28;19916;-74
2022/11/12 06:32:39;;;;;;;;;;;2.30;99.90;;;;;;5056813;28;20109;-74
2022/11/12 06:35:05;;;;;;;;;;;2.10;99.90;;;;;;5058447;28;19920;-74
2022/11/12 06:37:30;;;;;;;;;;;2.00;99.90;;;;;;5060417;28;19907;-74
2022/11/12 06:39:56;;;;;;;;;;;1.90;99.90;;;;;;5052745;28;19939;-74
2022/11/12 06:42:21;;;;;;;;;;;4.20;99.90;;;;;;5041010;28;19905;-74
2022/11/12 06:44:47;;;;;;;;;;;2.10;99.90;;;;;;5040759;28;19917;-74
2022/11/12 06:47:12;;;;;;;;;;;2.30;99.90;;;;;;5054445;28;20280;-74
2022/11/12 06:49:38;;;;;;;;;;;2.10;99.90;;;;;;5060962;28;20061;-74
2022/11/12 06:52:04;;;;;;;;;;;2.10;99.90;;;;;;5060938;28;20093;-75
2022/11/12 06:54:29;;;;;;;;;;;2.10;99.90;;;;;;5061187;28;19916;-75
2022/11/12 06:56:55;;;;;;;;;;;2.00;99.90;;;;;;5061176;28;19909;-74
2022/11/12 06:59:20;;;;;;;;;;;2.00;99.90;;;;;;5039942;28;19955;-74
2022/11/12 07:01:46;;;;;;;;;;;2.00;99.90;;;;;;5039791;28;19916;-74
2022/11/12 07:04:11;;;;;;;;;;;2.10;99.90;;;;;;5040020;28;19952;-75
2022/11/12 07:06:37;;;;;;;;;;;2.80;99.90;;;;;;5042236;28;20201;-74
2022/11/12 07:09:03;;;;;;;;;;;2.30;99.90;;;;;;5044605;28;19984;-74
2022/11/12 07:11:28;;;;;;;;;;;2.30;99.90;;;;;;5044978;28;19939;-74
2022/11/12 07:13:54;;;;;;;;;;;2.40;99.90;;;;;;5045457;28;19976;-74
2022/11/12 07:16:21;;;;;;;;;;;2.40;99.90;;;;;;5043963;28;19960;-74
2022/11/12 07:18:47;;;;;;;;;;;2.80;99.90;;;;;;5042790;28;19913;-74
2022/11/12 07:21:14;;;;;;;;;;;2.30;99.90;;;;;;5044529;28;20140;-75
2022/11/12 07:23:40;;;;;;;;;;;3.50;99.90;;;;;;5044398;28;19936;-74
2022/11/12 07:26:07;;;;;;;;;;;2.40;99.90;;;;;;5026567;28;19901;-74
2022/11/12 07:28:32;;;;;;;;;;;3.80;99.90;;;;;;5045876;28;19980;-74
2022/11/12 07:30:59;;;;;;;;;;;2.50;99.90;;;;;;5045141;28;19901;-74
2022/11/12 07:33:24;;;;;;;;;;;2.60;99.90;;;;;;5044338;28;19905;-75
2022/11/12 07:35:57;;;;;;;;;;;2.60;99.90;;;;;;5044541;28;19913;-75
2022/11/12 07:38:23;;;;;;;;;;;2.70;99.90;;;;;;5044600;28;19928;-74
2022/11/12 07:40:49;;;;;;;;;;;3.00;99.90;;;;;;5045083;28;19908;-74
2022/11/12 07:43:14;;;;;;;;;;;2.80;99.90;;;;;;5047511;28;19909;-74
2022/11/12 07:45:40;;;;;;;;;;;3.20;99.90;;;;;;5031021;28;19947;-74
2022/11/12 07:48:05;;;;;;;;;;;3.00;99.90;;;;;;5030203;28;20185;-74
2022/11/12 07:50:31;;;;;;;;;;;3.20;99.90;;;;;;5044889;28;19901;-74
2022/11/12 07:52:59;;;;;;;;;;;3.20;99.90;;;;;;5047737;28;19904;-74
2022/11/12 07:55:24;;;;;;;;;;;3.30;99.90;;;;;;5048051;28;20062;-74
2022/11/12 07:57:52;;;;;;;;;;;4.30;99.90;;;;;;5047984;28;20154;-74
2022/11/12 08:00:18;;;;;;;;;;;3.60;99.90;;;;;;5030831;28;19965;-75
2022/11/12 08:02:43;;;;;;;;;;;3.70;99.90;;;;;;5046662;28;19983;-74
2022/11/12 08:05:09;;;;;;;;;;;4.20;99.90;;;;;;5029207;28;19940;-77
2022/11/12 08:07:35;;;;;;;;;;;4.00;99.90;;;;;;5026204;28;19987;-77
2022/11/12 08:10:00;;;;;;;;;;;4.20;99.90;;;;;;5043895;28;19909;-77
2022/11/12 08:12:27;;;;;;;;;;;4.40;99.90;;;;;;5043336;28;20134;-77
2022/11/12 08:14:53;;;;;;;;;;;4.50;99.90;;;;;;5025307;28;19939;-78
2022/11/12 08:17:18;;;;;;;;;;;4.60;99.90;;;;;;5042807;28;19901;-78
2022/11/12 08:19:44;;;;;;;;;;;4.80;99.90;;;;;;5025092;28;19905;-77
2022/11/12 08:22:10;;;;;;;;;;;4.90;99.90;;;;;;5042689;28;19916;-78
2022/11/12 08:24:35;;;;;;;;;;;5.10;99.90;;;;;;5042787;28;19913;-78
2022/11/12 08:27:00;;;;;;;;;;;5.20;99.90;;;;;;5043114;28;20255;-78
2022/11/12 08:29:26;;;;;;;;;;;5.30;99.90;;;;;;5028154;28;19905;-78
2022/11/12 08:31:52;;;;;;;;;;;5.40;99.90;;;;;;5052425;28;19908;-74
2022/11/12 08:34:17;;;;;;;;;;;5.50;99.90;;;;;;5053234;28;20039;-77
2022/11/12 08:36:44;;;;;;;;;;;5.60;99.90;;;;;;5056244;28;19916;-78
2022/11/12 08:39:09;;;;;;;;;;;5.60;99.90;;;;;;5061388;28;20179;-77
2022/11/12 08:41:35;;;;;;;;;;;5.60;99.90;;;;;;5060995;28;19924;-77
2022/11/12 08:44:01;;;;;;;;;;;5.70;99.90;;;;;;5062390;28;20220;-77
2022/11/12 08:46:26;;;;;;;;;;;5.70;99.90;;;;;;5062517;28;19917;-77
2022/11/12 08:48:52;;;;;;;;;;;5.80;99.90;;;;;;5062552;28;19912;-77
2022/11/12 08:51:17;;;;;;;;;;;5.80;99.90;;;;;;5061858;28;19908;-77
2022/11/12 08:53:58;;;;;;;;;;;6.00;99.90;;;;;;5044270;28;19901;-78
2022/11/12 08:56:23;;;;;;;;;;;6.10;99.90;;;;;;5061929;28;19901;-78
2022/11/12 08:58:49;;;;;;;;;;;6.10;99.90;;;;;;5044219;28;19901;-77
2022/11/12 09:01:15;;;;;;;;;;;6.30;99.90;;;;;;5061918;28;19967;-78
2022/11/12 09:03:40;;;;;;;;;;;6.30;99.90;;;;;;5044143;28;19979;-77
2022/11/12 09:06:06;;;;;;;;;;;6.40;99.90;;;;;;5044038;28;19940;-78
2022/11/12 09:08:33;;;;;;;;;;;6.70;99.90;;;;;;5061263;28;19907;-77
2022/11/12 09:10:58;;;;;;;;;;;6.80;99.90;;;;;;5037951;28;20369;-77
2022/11/12 09:13:24;;;;;;;;;;;6.80;99.90;;;;;;5024432;28;19913;-77
2022/11/12 09:15:49;;;;;;;;;;;6.80;99.90;;;;;;5022926;28;19931;-77
2022/11/12 09:18:16;;;;;;;;;;;6.90;99.90;;;;;;5042447;28;19911;-78
2022/11/12 09:20:41;;;;;;;;;;;7.10;99.90;;;;;;5039869;28;19909;-78
2022/11/12 09:23:09;;;;;;;;;;;7.10;99.90;;;;;;5023684;28;19913;-78
2022/11/12 09:25:35;;;;;;;;;;;7.50;99.90;;;;;;5031586;28;19905;-78
2022/11/12 09:28:07;;;;;;;;;;;7.50;99.90;;;;;;5031554;28;19917;-78
2022/11/12 09:30:33;;;;;;;;;;;7.60;99.90;;;;;;5013466;28;20370;-78
2022/11/12 09:32:58;;;;;;;;;;;7.70;99.90;;;;;;5031065;28;19905;-77
2022/11/12 09:35:24;;;;;;;;;;;7.90;99.90;;;;;;5013817;28;19921;-78
2022/11/12 09:37:49;;;;;;;;;;;7.80;99.90;;;;;;5031909;28;20481;-78
2022/11/12 09:40:16;;;;;;;;;;;8.20;99.90;;;;;;5031299;28;19913;-78
2022/11/12 09:42:43;;;;;;;;;;;8.20;99.90;;;;;;5031881;28;19956;-77
2022/11/12 09:45:19;;;;;;;;;;;8.20;99.90;;;;;;5013421;28;19916;-78
2022/11/12 09:48:11;;;;;;;;;;;8.20;99.90;;;;;;5032310;28;19913;-78
2022/11/12 09:50:40;;;;;;;;;;;8.20;99.90;;;;;;5011686;28;20156;-78
2022/11/12 09:53:17;;;;;;;;;;;8.10;99.90;;;;;;5036870;28;20358;-78
2022/11/12 09:55:44;;;;;;;;;;;8.10;99.90;;;;;;5030922;28;20473;-78
2022/11/12 09:58:11;;;;;;;;;;;8.00;99.90;;;;;;5030478;28;19999;-78
2022/11/12 10:00:37;;;;;;;;;;;8.10;99.90;;;;;;5030200;28;20324;-79
2022/11/12 10:03:07;;;;;;;;;;;10.40;99.90;;;;;;5029500;28;19912;-78
2022/11/12 10:05:39;;;;;;;;;;;8.40;99.90;;;;;;5032327;28;19905;-80
2022/11/12 10:08:16;;;;;;;;;;;8.40;99.90;;;;;;5031458;28;19995;-79
2022/11/12 10:10:45;;;;;;;;;;;8.60;99.90;;;;;;5012931;28;19984;-78
2022/11/12 10:13:14;;;;;;;;;;;8.70;99.90;;;;;;5012821;28;20281;-78
2022/11/12 10:18:52;;;;;;;;;;;9.10;99.90;;;;;;5048667;28;19954;-78
2022/11/12 10:21:33;;;;;;;;;;;9.40;99.90;;;;;;5050773;28;19904;-79
2022/11/12 10:23:59;;;;;;;;;;;9.50;99.90;;;;;;5035125;28;19944;-78
2022/11/12 10:26:26;;;;;;;;;;;9.70;99.90;;;;;;5028693;28;19935;-79
2022/11/12 10:29:07;;;;;;;;;;;9.80;99.90;;;;;;5029594;28;19951;-79
2022/11/12 10:31:33;;;;;;;;;;;9.90;99.90;;;;;;5030173;28;19905;-79
2022/11/12 10:36:24;;;;;;;8.13;5.25;;;10.00;99.90;;;;;;5107667;27;20892;-77
2022/11/12 10:38:53;;;;;;;10.50;5.38;;;10.00;99.90;;;;;;5107687;28;20047;-77
2022/11/12 10:41:32;;;;;;;10.80;5.32;;;9.80;99.90;;;;;;5108087;28;20020;-79
2022/11/12 10:44:00;;;;;;;12.03;4.93;;;9.80;99.90;;;;;;5106802;28;20031;-77
2022/11/12 10:46:28;;;;;;;8.87;4.90;;;9.10;99.90;;;;;;5109117;28;20249;-77
2022/11/12 10:49:00;;;;;;;11.20;5.35;;;9.40;99.90;;;;;;5116318;28;20016;-78
2022/11/12 10:51:34;;;;;;;12.65;6.13;;;9.40;99.90;;;;;;5113493;28;20016;-76
2022/11/12 10:54:27;;;;;;;13.13;6.03;;;9.40;99.90;;;;;;5111732;28;20304;-76
2022/11/12 10:56:53;;;;;;;16.30;6.75;;;;;;;;;;5117313;28;20069;-77
2022/11/12 10:59:23;;;;;;;13.27;6.95;;;9.70;99.90;;;;;;5113741;28;20029;-76
2022/11/12 11:01:58;;;;;;;16.00;7.53;;;9.70;99.90;;;;;;5104800;28;20185;-75
2022/11/12 11:04:30;;;;;;;12.90;7.15;;;9.90;99.90;;;;;;5110259;28;20131;-76
2022/11/12 11:07:02;;;;;;;16.60;7.43;;;9.90;99.90;;;;;;5113139;28;20077;-77
2022/11/12 11:09:28;;;;;;;12.07;7.80;;;10.00;99.90;;;;;;5114415;28;20047;-77
2022/11/12 11:11:54;;;;;;;20.83;7.20;;;10.10;99.90;;;;;;5106812;28;20059;-77
2022/11/12 11:14:22;;;;;;;12.00;7.38;;;10.10;99.90;;;;;;5105812;28;20024;-77
2022/11/12 11:16:52;;;;;;;18.98;7.88;;;10.10;99.90;;;;;;5105738;28;20061;-76
2022/11/12 11:19:19;;;;;;;11.02;5.75;;;10.10;99.90;;;;;;5105012;28;20020;-77
2022/11/12 11:21:48;;;;;;;12.02;7.30;;;;;;;;;;5105128;28;20488;-77
2022/11/12 11:24:19;;;;;;;15.35;7.65;;;10.20;99.90;;;;;;5106594;28;20073;-76
2022/11/12 11:27:03;;;;;;;13.23;7.28;;;10.20;99.90;;;;;;5105201;28;20114;-76
2022/11/12 11:29:29;;;;;;;14.90;7.18;;;10.40;99.90;;;;;;5105121;28;20020;-76
2022/11/12 11:32:11;;;;;;;11.77;6.95;;;10.50;99.90;;;;;;5106311;28;20031;-77
2022/11/12 11:34:57;;;;;;;9.57;6.18;;;10.40;99.90;;;;;;5104972;28;20513;-77
2022/11/12 11:37:31;;;;;;;13.93;5.95;;;10.50;99.90;;;;;;5104947;28;20046;-76
2022/11/12 11:40:09;;;;;;;10.88;6.40;;;10.60;99.90;;;;;;5106206;28;20027;-77
2022/11/12 11:43:06;;;;;;;13.90;7.50;;;10.80;99.90;;;;;;5106303;28;20110;-78
2022/11/12 11:45:44;;;;;;;13.40;7.25;;;10.90;99.90;;;;;;5103559;28;20019;-77
2022/11/12 11:48:18;;;;;;;17.52;7.65;;;11.00;99.90;;;;;;5092491;28;20032;-77
2022/11/12 11:51:03;;;;;;;15.60;6.35;;;11.10;99.90;;;;;;5093073;28;20372;-77
2022/11/12 11:53:37;;;;;;;16.23;7.30;;;11.10;99.90;;;;;;5093568;28;20028;-76
2022/11/12 11:56:13;;;;;;;8.50;5.60;;;11.20;99.90;;;;;;5098612;28;20051;-77
2022/11/12 11:58:39;;;;;;;13.70;6.03;;;;;;;;;;5090882;28;20031;-78
2022/11/12 12:01:42;;;;;;;10.45;5.10;;;11.40;99.90;;;;;;5090587;28;20248;-78
2022/11/12 12:04:30;;;;;;;14.00;5.85;;;11.50;99.90;;;;;;5091855;28;20073;-78
2022/11/12 12:07:08;;;;;;;8.38;5.03;;;11.60;99.90;;;;;;5094913;28;20107;-77
2022/11/12 12:09:41;;;;;;;14.00;6.10;;;11.70;99.90;;;;;;5108085;28;20028;-79
2022/11/12 12:12:42;;;;;;;11.63;5.55;;;12.00;99.90;;;;;;5091151;28;20031;-78
2022/11/12 12:15:45;;;;;;;10.75;5.65;;;11.80;99.90;;;;;;5091417;28;20508;-77
2022/11/12 12:18:17;;;;;;;15.38;6.97;;;11.80;99.90;;;;;;5088121;28;20039;-77
2022/11/12 12:21:01;;;;;;;8.20;5.93;;;11.80;99.90;;;;;;5091487;28;20031;-77
2022/11/12 12:23:47;;;;;;;9.63;5.07;;;11.80;99.90;;;;;;5097087;28;20034;-74
2022/11/12 12:26:41;;;;;;;10.15;5.63;;;11.80;99.90;;;;;;5094057;28;20028;-76
2022/11/12 12:29:14;;;;;;;14.50;6.07;;;11.80;99.90;;;;;;5092030;28;20077;-76
2022/11/12 12:32:12;;;;;;;14.23;6.85;;;11.80;99.90;;;;;;5091364;28;20038;-76
2022/11/12 12:34:42;;;;;;;14.88;7.78;;;11.80;99.90;;;;;;5086247;28;20516;-76
2022/11/12 12:37:26;;;;;;;28.45;12.23;;;11.80;99.90;;;;;;5091642;28;20020;-76
2022/11/12 12:40:17;;;;;;;16.95;8.82;;;11.90;99.90;;;;;;5089583;28;20024;-77
2022/11/12 12:43:02;;;;;;;12.77;5.22;;;12.30;99.90;;;;;;5091691;28;20308;-76
2022/11/12 12:45:36;;;;;;;14.18;6.30;;;12.10;99.90;;;;;;5089393;28;20032;-77
2022/11/12 12:48:06;;;;;;;11.02;6.47;;;12.10;99.90;;;;;;5090515;28;20016;-78
2022/11/12 12:50:35;;;;;;;10.88;6.18;;;12.20;99.90;;;;;;5085529;28;20231;-76
2022/11/12 12:53:15;;;;;;;15.35;7.20;;;11.70;99.90;;;;;;5089134;28;20077;-76
2022/11/12 12:55:44;;;;;;;10.30;5.32;;;11.70;99.90;;;;;;5089474;28;20042;-76
2022/11/12 12:58:43;;;;;;;11.70;6.15;;;11.40;99.90;;;;;;5090287;28;20043;-76
2022/11/12 13:01:21;;;;;;;10.88;5.70;;;;;;;;;;5088110;28;20031;-76
2022/11/12 13:04:01;;;;;;;13.10;7.30;;;11.40;99.90;;;;;;5084151;28;20035;-78
2022/11/12 13:06:34;;;;;;;15.43;7.13;;;11.60;99.90;;;;;;5091796;28;20055;-77
2022/11/12 13:09:02;;;;;;;13.55;7.70;;;11.50;99.90;;;;;;5085977;28;20121;-76
2022/11/12 13:14:30;;;;;;;19.70;8.18;;;11.10;99.90;;;;;;5089902;28;20062;-77
2022/11/12 13:17:13;;;;;;;16.45;8.10;;;11.10;99.90;;;;;;5086872;28;20119;-76
2022/11/12 13:19:57;;;;;;;15.80;9.43;;;11.20;99.90;;;;;;5086758;28;20062;-76
2022/11/12 13:22:23;;;;;;;17.05;8.80;;;11.20;99.90;;;;;;5090035;28;20515;-77
2022/11/12 13:25:11;;;;;;;17.75;9.27;;;11.20;99.90;;;;;;5090280;28;20032;-78
2022/11/12 13:27:43;;;;;;;17.75;8.27;;;11.20;99.90;;;;;;5088890;28;20110;-77
2022/11/12 13:30:19;;;;;;;20.63;10.52;;;10.80;99.90;;;;;;5079147;28;20055;-76
2022/11/12 13:32:50;;;;;;;15.32;7.85;;;10.80;99.90;;;;;;5075849;28;20024;-75
2022/11/12 13:35:16;;;;;;;15.95;8.88;;;10.70;99.90;;;;;;5087416;28;20441;-75
2022/11/12 13:37:43;;;;;;;20.70;10.18;;;10.40;99.90;;;;;;5083372;28;20028;-75
2022/11/12 13:40:14;;;;;;;20.15;9.35;;;10.40;99.90;;;;;;5086256;28;20028;-75
2022/11/12 13:42:50;;;;;;;24.75;11.20;;;10.20;99.90;;;;;;5085787;28;20036;-75
2022/11/12 13:45:22;;;;;;;38.00;16.30;;;10.20;99.90;;;;;;5083830;28;20032;-76
2022/11/12 13:47:48;;;;;;;19.98;9.90;;;;;;;;;;5084733;28;20503;-76
2022/11/12 13:50:18;;;;;;;20.27;8.63;;;10.00;99.90;;;;;;5084279;28;20028;-75
2022/11/12 13:52:46;;;;;;;18.23;9.82;;;10.00;99.90;;;;;;5084685;28;20467;-75
2022/11/12 13:55:16;;;;;;;21.35;10.35;;;9.90;99.90;;;;;;5084183;28;20028;-75
2022/11/12 13:57:57;;;;;;;17.05;8.95;;;9.90;99.90;;;;;;5084762;28;20020;-76
2022/11/12 14:00:24;;;;;;;24.63;11.23;;;9.80;99.90;;;;;;5079490;28;20042;-75
2022/11/12 14:02:52;;;;;;;22.35;9.25;;;9.60;99.90;;;;;;5079476;28;20027;-75
2022/11/12 14:05:30;;;;;;;21.42;10.88;;;9.30;99.90;;;;;;5085374;28;20461;-74
2022/11/12 14:08:04;;;;;;;18.98;10.75;;;9.50;99.90;;;;;;5082337;28;20630;-75
2022/11/12 14:10:58;;;;;;;23.35;12.82;;;9.10;99.90;;;;;;5083623;28;20032;-75
2022/11/12 14:13:57;;;;;;;19.10;10.77;;;9.00;99.90;;;;;;5082765;28;20137;-74
2022/11/12 14:16:34;;;;;;;22.13;9.88;;;9.00;99.90;;;;;;5079924;28;20036;-75
2022/11/12 14:19:17;;;;;;;24.25;11.38;;;9.00;99.90;;;;;;5076516;28;20069;-74
2022/11/12 14:21:58;;;;;;;24.27;12.90;;;8.80;99.90;;;;;;5081531;28;20800;-76
2022/11/12 14:24:23;;;;;;;25.10;11.82;;;8.70;99.90;;;;;;5082837;28;20026;-76
2022/11/12 14:26:49;;;;;;;27.00;10.70;;;;;;;;;;5082442;28;20032;-74
2022/11/12 14:29:17;;;;;;;25.15;10.98;;;8.60;99.90;;;;;;5083083;28;20236;-75
2022/11/12 14:31:43;;;;;;;30.10;11.75;;;8.60;99.90;;;;;;5084995;28;20024;-75
2022/11/12 14:34:27;;;;;;;26.70;11.20;;;8.60;99.90;;;;;;5082044;28;20115;-76